This is the latest recevied weather packets stored in our database for station/object E24CR-1. If no packets are shown the sender has not sent any weather packets the latest 10 day(s).
| Time | Temp. | Humidity | Pressure | Rain* | Wind** | Luminosity | Snow |
|---|---|---|---|---|---|---|---|
| 1777787011 | 38.89° C | 29% | 951 hPa | - | - | 0 W/m² | - |
| 1777786387 | 38.89° C | 30% | 951 hPa | - | - | 0 W/m² | - |
| 1777785763 | 37.78° C | 30% | 951 hPa | - | - | 0 W/m² | - |
| 1777785139 | 38.33° C | 30% | 952 hPa | - | - | 0 W/m² | - |
| 1777784515 | 37.78° C | 31% | 952 hPa | - | - | 0 W/m² | - |
| 1777783890 | 37.22° C | 32% | 952 hPa | - | - | 0 W/m² | - |
| 1777783266 | 36.11° C | 34% | 952 hPa | - | - | 0 W/m² | - |
| 1777782642 | 33.89° C | 37% | 952 hPa | - | - | 0 W/m² | - |
| 1777782018 | 33.89° C | 37% | 952 hPa | - | - | 0 W/m² | - |
| 1777781393 | 35° C | 35% | 953 hPa | - | - | 0 W/m² | - |
| 1777780769 | 36.11° C | 34% | 953 hPa | - | - | 0 W/m² | - |
| 1777780145 | 35° C | 35% | 953 hPa | - | - | 0 W/m² | - |
| 1777779521 | 33.89° C | 36% | 953 hPa | - | - | 0 W/m² | - |
| 1777778897 | 33.89° C | 39% | 953 hPa | - | - | 0 W/m² | - |
| 1777778273 | 33.89° C | 38% | 953 hPa | - | - | 0 W/m² | - |
| 1777777649 | 34.44° C | 38% | 953 hPa | - | - | 0 W/m² | - |
| 1777777025 | 33.33° C | 39% | 953 hPa | - | - | 0 W/m² | - |
| 1777776400 | 33.89° C | 40% | 953 hPa | - | - | 0 W/m² | - |
| 1777775776 | 32.78° C | 40% | 953 hPa | - | - | 0 W/m² | - |
| 1777775152 | 32.78° C | 40% | 953 hPa | - | - | 0 W/m² | - |
| 1777774527 | 33.33° C | 40% | 953 hPa | - | - | 0 W/m² | - |
| 1777773903 | 31.67° C | 43% | 953 hPa | - | - | 0 W/m² | - |
| 1777773279 | 31.67° C | 43% | 953 hPa | - | - | 0 W/m² | - |
| 1777772655 | 31.67° C | 43% | 953 hPa | - | - | 0 W/m² | - |
| 1777772031 | 31.11° C | 44% | 953 hPa | - | - | 0 W/m² | - |
* Rain since midnight (hover to see other rain measurements)
** Current wind speed in m/s (hover to see current wind gust speed)